This is the latest recevied weather packets stored in our database for station/object TG8AKV-17. If no packets are shown the sender has not sent any weather packets the latest 10 day(s).
| Time | Temp. | Humidity | Pressure | Rain* | Wind** | Luminosity | Snow |
|---|---|---|---|---|---|---|---|
| 1777608198 | 12.78° C | 93% | 1016 hPa | 0 mm | - | - | - |
| 1777607598 | 12.78° C | 93% | 1016 hPa | 0 mm | - | - | - |
| 1777606997 | 12.78° C | 94% | 1016 hPa | 0 mm | - | - | - |
| 1777606396 | 12.78° C | 94% | 1016 hPa | 0 mm | - | - | - |
| 1777605796 | 12.78° C | 94% | 1015 hPa | 0 mm | - | - | - |
| 1777605195 | 12.78° C | 94% | 1015 hPa | 0 mm | - | - | - |
| 1777604594 | 12.78° C | 94% | 1015 hPa | 0 mm | - | - | - |
| 1777603994 | 12.78° C | 94% | 1015 hPa | 0 mm | - | - | - |
| 1777603393 | 12.78° C | 94% | 1015 hPa | 0 mm | - | - | - |
| 1777602792 | 13.33° C | 94% | 1015 hPa | 0 mm | - | - | - |
| 1777602192 | 13.33° C | 94% | 1015 hPa | 0 mm | - | - | - |
| 1777601591 | 13.33° C | 94% | 1015 hPa | 0 mm | - | - | - |
| 1777600390 | 13.33° C | 93% | 1015 hPa | 0 mm | - | - | - |
| 1777582971 | 21.67° C | 65% | 1011 hPa | 0 mm | - | - | - |
| 1777581770 | 20° C | 74% | 1012 hPa | 0 mm | - | - | - |
| 1777579968 | 18.89° C | 89% | 1012 hPa | 0 mm | - | - | - |
| 1777579367 | 19.44° C | 87% | 1012 hPa | 0 mm | - | - | - |
| 1777570358 | 21.11° C | 50% | 1013 hPa | 0 mm | - | - | - |
| 1777558345 | 12.78° C | 76% | 1015 hPa | 0 mm | - | - | - |
| 1777554741 | 11.11° C | 92% | 1015 hPa | 0 mm | - | - | - |
| 1777553540 | 11.11° C | 92% | 1015 hPa | 0 mm | - | - | - |
| 1777551738 | 10.56° C | 93% | 1015 hPa | 0 mm | - | - | - |
| 1777549936 | 10.56° C | 91% | 1016 hPa | 0 mm | - | - | - |
| 1777548735 | 10.56° C | 93% | 1016 hPa | 0 mm | - | - | - |
| 1777548134 | 10.56° C | 92% | 1015 hPa | 0 mm | - | - | - |
* Rain latest hour (hover to see other rain measurements)
** Current wind speed in m/s (hover to see current wind gust speed)